Time;durP1;ratioP1;P1;durP2;ratioP2;P2;SDS_P1;SDS_P2;PMS_P1;PMS_P2;Temp;Humidity;BMP_temperature;BMP_pressure;BME280_temperature;BME280_humidity;BME280_pressure;Samples;Min_cycle;Max_cycle;Signal;HPM_P1;HPM_P2
2022/12/31 00:01:40;;;;;;;1.40;1.20;;;;;;;;;;10414165;28;20355;-62
2022/12/31 00:06:40;;;;;;;3.23;1.47;;;;;;;;;;10413809;28;20267;-63
2022/12/31 00:11:41;;;;;;;3.07;1.47;;;;;;;;;;10414359;28;20216;-63
2022/12/31 00:16:41;;;;;;;1.47;1.30;;;;;;;;;;10413189;28;20255;-62
2022/12/31 00:21:42;;;;;;;1.63;1.37;;;;;;;;;;10413242;28;20870;-63
2022/12/31 00:26:42;;;;;;;2.30;1.70;;;;;;;;;;10413550;28;20288;-62
2022/12/31 00:31:42;;;;;;;2.90;1.90;;;;;;;;;;10411774;28;20232;-62
2022/12/31 00:36:44;;;;;;;2.07;1.87;;;;;;;;;;10412663;28;20427;-62
2022/12/31 00:41:44;;;;;;;2.10;1.60;;;;;;;;;;10412199;28;20587;-64
2022/12/31 00:46:45;;;;;;;1.40;1.30;;;;;;;;;;10411556;28;20193;-64
2022/12/31 00:51:45;;;;;;;1.60;1.00;;;;;;;;;;10412683;28;20217;-63
2022/12/31 00:56:45;;;;;;;0.70;0.70;;;;;;;;;;10410517;28;20856;-63
2022/12/31 01:01:46;;;;;;;0.50;0.50;;;;;;;;;;10411673;28;20231;-63
2022/12/31 01:06:46;;;;;;;0.50;0.50;;;;;;;;;;10410541;28;20254;-61
2022/12/31 01:11:48;;;;;;;0.43;0.43;;;;;;;;;;10412023;28;20455;-63
2022/12/31 01:16:50;;;;;;;0.40;0.40;;;;;;;;;;10410354;28;20200;-62
2022/12/31 01:21:51;;;;;;;0.50;0.50;;;;;;;;;;10410961;28;20221;-63
2022/12/31 01:26:51;;;;;;;0.47;0.47;;;;;;;;;;10410518;28;20185;-62
2022/12/31 01:31:51;;;;;;;0.40;0.40;;;;;;;;;;10409966;28;20216;-64
2022/12/31 01:36:51;;;;;;;0.50;0.50;;;;;;;;;;10410726;28;20227;-63
2022/12/31 01:41:52;;;;;;;0.40;0.40;;;;;;;;;;10409686;28;20240;-63
2022/12/31 01:46:53;;;;;;;0.93;0.50;;;;;;;;;;10407280;28;20201;-63
2022/12/31 01:52:01;;;;;;;0.47;0.43;;;;;;;;;;10409961;28;20235;-64
2022/12/31 01:57:02;;;;;;;0.43;0.43;;;;;;;;;;10408071;28;20202;-63
2022/12/31 02:02:04;;;;;;;0.40;0.40;;;;;;;;;;10407986;28;20224;-63
2022/12/31 02:07:05;;;;;;;2.80;0.40;;;;;;;;;;10409036;28;20188;-63
2022/12/31 02:12:07;;;;;;;0.40;0.40;;;;;;;;;;10408754;28;20208;-63
2022/12/31 02:17:26;;;;;;;0.50;0.50;;;;;;;;;;10408887;28;20188;-62
2022/12/31 02:22:44;;;;;;;0.40;0.40;;;;;;;;;;10408574;28;20737;-63
2022/12/31 02:27:44;;;;;;;0.30;0.30;;;;;;;;;;10408247;28;20220;-63
2022/12/31 02:33:04;;;;;;;0.40;0.40;;;;;;;;;;10407710;28;20291;-62
2022/12/31 02:38:07;;;;;;;0.40;0.40;;;;;;;;;;10408174;28;20195;-63
2022/12/31 02:43:08;;;;;;;0.40;0.40;;;;;;;;;;10424914;23;20251;-62
2022/12/31 02:48:13;;;;;;;0.40;0.40;;;;;;;;;;10407646;28;20189;-61
2022/12/31 02:53:13;;;;;;;0.40;0.40;;;;;;;;;;10406849;28;20239;-62
2022/12/31 03:02:12;;;;;;;0.40;0.40;;;;;;;;;;10405357;28;20751;-63
2022/12/31 03:03:46;;;;;;;0.40;0.40;;;;;;;;;;10404937;28;20344;-60
2022/12/31 03:14:04;;;;;;;0.40;0.40;;;;;;;;;;10405536;28;20208;-63
2022/12/31 03:29:42;;;;;;;0.40;0.40;;;;;;;;;;10419734;28;20663;-62
2022/12/31 03:34:42;;;;;;;0.43;0.30;;;;;;;;;;10420948;28;20195;-63
2022/12/31 03:39:43;;;;;;;0.40;0.40;;;;;;;;;;10459744;28;20215;-63
2022/12/31 03:44:43;;;;;;;0.30;0.30;;;;;;;;;;10460602;28;20666;-63
2022/12/31 03:49:43;;;;;;;0.40;0.40;;;;;;;;;;10460744;28;20188;-63
2022/12/31 03:54:43;;;;;;;0.40;0.40;;;;;;;;;;10459513;28;20195;-62
2022/12/31 03:59:43;;;;;;;0.33;0.33;;;;;;;;;;10460622;28;20232;-62
2022/12/31 04:04:43;;;;;;;0.40;0.40;;;;;;;;;;10456382;28;20195;-64
2022/12/31 04:09:44;;;;;;;0.30;0.30;;;;;;;;;;10452859;28;20183;-63
2022/12/31 04:14:44;;;;;;;0.40;0.40;;;;;;;;;;10453182;28;20669;-62
2022/12/31 04:19:44;;;;;;;0.38;0.38;;;;;;;;;;10453945;28;20246;-64
2022/12/31 04:24:44;;;;;;;0.40;0.40;;;;;;;;;;10452835;28;20286;-62
2022/12/31 04:29:45;;;;;;;0.40;0.40;;;;;;;;;;10454122;28;20199;-64
2022/12/31 04:34:45;;;;;;;1.75;0.40;;;;;;;;;;10452940;28;20188;-64
2022/12/31 04:39:45;;;;;;;0.50;0.50;;;;;;;;;;10447138;28;20208;-64
2022/12/31 04:44:45;;;;;;;0.30;0.30;;;;;;;;;;10446284;28;20192;-65
2022/12/31 04:49:45;;;;;;;0.70;0.47;;;;;;;;;;10446441;28;20549;-64
2022/12/31 04:54:45;;;;;;;0.90;0.60;;;;;;;;;;10445793;28;20237;-63
2022/12/31 04:59:46;;;;;;;0.50;0.50;;;;;;;;;;10446839;28;20230;-63
2022/12/31 05:04:46;;;;;;;0.40;0.40;;;;;;;;;;10451675;28;20184;-62
2022/12/31 05:09:46;;;;;;;0.50;0.50;;;;;;;;;;10452971;28;20184;-61
2022/12/31 05:14:46;;;;;;;0.60;0.60;;;;;;;;;;10452768;28;20192;-62
2022/12/31 05:19:46;;;;;;;0.50;0.50;;;;;;;;;;10451942;28;20215;-62
2022/12/31 05:24:46;;;;;;;0.50;0.50;;;;;;;;;;10453377;28;20180;-61
2022/12/31 05:29:48;;;;;;;0.77;0.50;;;;;;;;;;10452031;28;20245;-64
2022/12/31 05:34:48;;;;;;;0.50;0.50;;;;;;;;;;10451631;28;20196;-63
2022/12/31 05:39:48;;;;;;;0.40;0.40;;;;;;;;;;10451346;28;20262;-63
2022/12/31 05:44:49;;;;;;;0.30;0.30;;;;;;;;;;10451248;28;20199;-63
2022/12/31 05:49:49;;;;;;;0.30;0.30;;;;;;;;;;10452434;28;20184;-62
2022/12/31 05:54:49;;;;;;;0.30;0.30;;;;;;;;;;10451344;28;20183;-62
2022/12/31 05:59:52;;;;;;;0.30;0.30;;;;;;;;;;10452122;28;20223;-58
2022/12/31 06:04:52;;;;;;;0.30;0.30;;;;;;;;;;10449941;28;20180;-63
2022/12/31 06:09:52;;;;;;;0.50;0.50;;;;;;;;;;10450670;28;20666;-62
2022/12/31 06:14:52;;;;;;;0.68;0.40;;;;;;;;;;10450167;28;20199;-62
2022/12/31 06:19:52;;;;;;;0.30;0.30;;;;;;;;;;10450443;28;20212;-62
2022/12/31 06:24:53;;;;;;;2.20;0.50;;;;;;;;;;10435985;28;20723;-61
2022/12/31 06:29:53;;;;;;;0.50;0.50;;;;;;;;;;10415977;28;20690;-61
2022/12/31 06:34:53;;;;;;;1.50;1.38;;;;;;;;;;10407826;28;20247;-61
2022/12/31 06:39:53;;;;;;;1.30;1.20;;;;;;;;;;10408026;28;20215;-61
2022/12/31 06:44:54;;;;;;;4.63;3.50;;;;;;;;;;10408123;28;20570;-62
2022/12/31 06:49:54;;;;;;;2.22;2.05;;;;;;;;;;10407929;28;20191;-62
2022/12/31 06:54:55;;;;;;;0.90;0.90;;;;;;;;;;10408577;28;20213;-62
2022/12/31 06:59:56;;;;;;;1.38;0.60;;;;;;;;;;10407117;28;20772;-63
2022/12/31 07:05:12;;;;;;;0.75;0.75;;;;;;;;;;10406515;28;20427;-62
2022/12/31 07:10:17;;;;;;;1.55;0.60;;;;;;;;;;10407548;28;20212;-61
2022/12/31 07:15:19;;;;;;;0.50;0.50;;;;;;;;;;10407101;28;20176;-62
2022/12/31 07:20:20;;;;;;;0.40;0.40;;;;;;;;;;10408019;28;20259;-62
2022/12/31 07:25:22;;;;;;;0.50;0.50;;;;;;;;;;10407960;28;20650;-58
2022/12/31 07:30:33;;;;;;;0.40;0.40;;;;;;;;;;10406934;28;20217;-58
2022/12/31 07:35:45;;;;;;;0.85;0.50;;;;;;;;;;10405379;28;20192;-62
2022/12/31 07:40:51;;;;;;;0.60;0.60;;;;;;;;;;10439637;28;20738;-59
2022/12/31 07:45:59;;;;;;;0.50;0.50;;;;;;;;;;10444188;28;20246;-62
2022/12/31 07:50:59;;;;;;;0.95;0.60;;;;;;;;;;10436986;28;20209;-61
2022/12/31 07:56:00;;;;;;;2.28;1.23;;;;;;;;;;10422236;28;20211;-61
2022/12/31 08:01:01;;;;;;;3.25;2.95;;;;;;;;;;10421653;28;20693;-61
2022/12/31 08:06:01;;;;;;;1.08;0.85;;;;;;;;;;10442033;28;20188;-60
2022/12/31 08:11:08;;;;;;;1.52;1.30;;;;;;;;;;10445848;28;20212;-63
2022/12/31 08:16:09;;;;;;;102.57;55.00;;;;;;;;;;10451925;28;20565;-63
2022/12/31 08:21:10;;;;;;;1.67;1.40;;;;;;;;;;10452509;28;20231;-62
2022/12/31 08:26:10;;;;;;;3.05;2.58;;;;;;;;;;10453155;28;20196;-62
2022/12/31 08:31:18;;;;;;;1.20;1.17;;;;;;;;;;10450578;28;20310;-64
2022/12/31 08:36:25;;;;;;;1.38;0.73;;;;;;;;;;10449900;28;20196;-63
2022/12/31 08:41:36;;;;;;;1.33;0.98;;;;;;;;;;10451912;28;20255;-63
2022/12/31 08:46:36;;;;;;;0.88;0.75;;;;;;;;;;10450314;28;20180;-62
2022/12/31 08:51:36;;;;;;;1.73;1.30;;;;;;;;;;10451390;28;20857;-62
2022/12/31 08:56:57;;;;;;;6.33;2.20;;;;;;;;;;10449250;28;20330;-62
2022/12/31 09:02:06;;;;;;;1.20;0.90;;;;;;;;;;10439546;28;20489;-62
2022/12/31 09:07:08;;;;;;;1.10;0.90;;;;;;;;;;10448454;28;20254;-61
2022/12/31 09:12:27;;;;;;;5.13;0.95;;;;;;;;;;10450223;28;20219;-61
2022/12/31 09:17:27;;;;;;;1.15;0.88;;;;;;;;;;10450679;28;20199;-62
2022/12/31 09:22:27;;;;;;;3.55;1.17;;;;;;;;;;10449454;28;20232;-62
2022/12/31 09:27:33;;;;;;;1.33;1.08;;;;;;;;;;10448449;28;20184;-62
2022/12/31 09:32:52;;;;;;;0.90;0.90;;;;;;;;;;10449979;28;20208;-63
2022/12/31 09:37:59;;;;;;;3.03;0.80;;;;;;;;;;10429276;28;20195;-61
2022/12/31 09:43:11;;;;;;;1.63;1.00;;;;;;;;;;10426491;28;20227;-63
2022/12/31 09:48:20;;;;;;;0.93;0.80;;;;;;;;;;10449365;28;20619;-62
2022/12/31 09:53:20;;;;;;;1.70;0.80;;;;;;;;;;10449212;28;20705;-63
2022/12/31 09:58:26;;;;;;;2.00;1.10;;;;;;;;;;10446616;28;20207;-63
2022/12/31 10:03:45;;;;;;;1.65;0.90;;;;;;;;;;10448685;28;20377;-63
2022/12/31 10:09:04;;;;;;;2.20;0.90;;;;;;;;;;10447743;28;20608;-62
2022/12/31 10:14:20;;;;;;;1.13;0.80;;;;;;;;;;10445661;28;20578;-62
2022/12/31 10:19:40;;;;;;;0.60;0.60;;;;;;;;;;10447888;28;20183;-62
2022/12/31 10:24:52;;;;;;;3.80;1.42;;;;;;;;;;10448433;28;20289;-62
2022/12/31 10:29:53;;;;;;;1.10;0.70;;;;;;;;;;10446839;28;20749;-62
2022/12/31 10:35:11;;;;;;;1.38;0.70;;;;;;;;;;10444696;28;20582;-64
2022/12/31 10:40:11;;;;;;;0.70;0.70;;;;;;;;;;10445670;28;20313;-61
2022/12/31 10:45:29;;;;;;;2.05;1.55;;;;;;;;;;10445089;28;20249;-62
2022/12/31 10:50:29;;;;;;;1.25;0.73;;;;;;;;;;10446766;28;20215;-62
2022/12/31 10:55:50;;;;;;;1.40;0.90;;;;;;;;;;10444726;28;20199;-62
2022/12/31 11:00:55;;;;;;;2.80;0.75;;;;;;;;;;10446619;28;20231;-62
2022/12/31 11:06:14;;;;;;;0.85;0.70;;;;;;;;;;10445083;28;20642;-63
2022/12/31 11:11:26;;;;;;;2.38;0.80;;;;;;;;;;10432551;28;20678;-63
2022/12/31 11:16:34;;;;;;;0.90;0.80;;;;;;;;;;10419160;28;20211;-63
2022/12/31 11:21:37;;;;;;;1.85;1.00;;;;;;;;;;10403527;28;20217;-62
2022/12/31 11:26:40;;;;;;;1.30;0.80;;;;;;;;;;10403559;28;20242;-63
2022/12/31 11:31:56;;;;;;;4.50;1.48;;;;;;;;;;10436926;28;20215;-62
2022/12/31 11:37:09;;;;;;;2.55;1.00;;;;;;;;;;10443504;28;20218;-63
2022/12/31 11:42:28;;;;;;;2.22;0.68;;;;;;;;;;10443724;28;20271;-59
2022/12/31 11:47:41;;;;;;;1.35;1.15;;;;;;;;;;10445534;28;20202;-62
2022/12/31 11:52:50;;;;;;;3.97;1.00;;;;;;;;;;10453336;28;20211;-61
2022/12/31 11:57:50;;;;;;;0.98;0.80;;;;;;;;;;10448914;28;20201;-62
2022/12/31 12:02:52;;;;;;;1.38;0.85;;;;;;;;;;10415432;28;20702;-64
2022/12/31 12:07:53;;;;;;;1.75;0.70;;;;;;;;;;10411340;28;20599;-63
2022/12/31 12:12:54;;;;;;;0.90;0.90;;;;;;;;;;10411709;28;20212;-63
2022/12/31 12:18:03;;;;;;;5.72;3.53;;;;;;;;;;10410316;28;20230;-64
2022/12/31 12:23:14;;;;;;;0.90;0.90;;;;;;;;;;10449849;28;20216;-63
2022/12/31 12:28:18;;;;;;;1.13;0.80;;;;;;;;;;10450917;28;20204;-63
2022/12/31 12:33:19;;;;;;;0.85;0.85;;;;;;;;;;10450978;28;20223;-63
2022/12/31 12:38:20;;;;;;;1.85;0.70;;;;;;;;;;10451507;28;20207;-64
2022/12/31 12:43:22;;;;;;;1.80;0.80;;;;;;;;;;10452812;28;20228;-63
2022/12/31 12:48:31;;;;;;;1.75;0.77;;;;;;;;;;10452226;28;20212;-63
2022/12/31 12:53:39;;;;;;;0.63;0.63;;;;;;;;;;10451343;28;20690;-62
2022/12/31 12:58:57;;;;;;;0.70;0.70;;;;;;;;;;10451185;28;20220;-63
2022/12/31 13:04:03;;;;;;;2.45;1.35;;;;;;;;;;10451010;28;20222;-63
2022/12/31 13:09:22;;;;;;;3.35;1.80;;;;;;;;;;10451865;28;20742;-63
2022/12/31 13:14:40;;;;;;;1.85;1.25;;;;;;;;;;10451900;28;20204;-63
2022/12/31 13:19:47;;;;;;;1.80;1.27;;;;;;;;;;10452229;28;20701;-63
2022/12/31 13:25:06;;;;;;;8.02;3.33;;;;;;;;;;10452439;28;20180;-61
2022/12/31 13:30:14;;;;;;;4.13;1.95;;;;;;;;;;10452421;28;20216;-62
2022/12/31 13:35:35;;;;;;;4.53;1.45;;;;;;;;;;10451223;28;20188;-62
2022/12/31 13:40:41;;;;;;;2.30;1.00;;;;;;;;;;10440707;28;20231;-62
2022/12/31 13:45:42;;;;;;;1.33;0.88;;;;;;;;;;10452005;28;20191;-62
2022/12/31 13:50:47;;;;;;;2.67;1.33;;;;;;;;;;10452344;28;20598;-63
2022/12/31 13:55:56;;;;;;;0.82;0.82;;;;;;;;;;10450702;28;20230;-60
2022/12/31 14:01:05;;;;;;;5.70;1.40;;;;;;;;;;10450500;28;20276;-63
2022/12/31 14:06:13;;;;;;;1.33;1.00;;;;;;;;;;10450782;28;20262;-62
2022/12/31 14:11:13;;;;;;;7.13;2.80;;;;;;;;;;10451225;28;20204;-61
2022/12/31 14:16:27;;;;;;;4.10;1.95;;;;;;;;;;10449851;28;20184;-62
2022/12/31 14:21:33;;;;;;;4.22;2.78;;;;;;;;;;10450889;28;20301;-61
2022/12/31 14:26:42;;;;;;;1.42;0.90;;;;;;;;;;10448815;28;20241;-63
2022/12/31 14:31:50;;;;;;;1.33;0.90;;;;;;;;;;10449762;28;20207;-63
2022/12/31 14:36:50;;;;;;;1.35;0.93;;;;;;;;;;10445932;28;20188;-62
2022/12/31 14:42:02;;;;;;;1.55;1.45;;;;;;;;;;10428883;28;20703;-62
2022/12/31 14:47:21;;;;;;;2.28;1.42;;;;;;;;;;10447264;22;20318;-64
2022/12/31 14:52:24;;;;;;;0.80;0.80;;;;;;;;;;10323660;28;20202;-66
2022/12/31 14:57:25;;;;;;;1.10;1.00;;;;;;;;;;10385314;23;988890;-63
2022/12/31 15:02:27;;;;;;;3.45;1.35;;;;;;;;;;10438949;22;20244;-65
2022/12/31 15:07:32;;;;;;;1.27;1.17;;;;;;;;;;10405946;28;20224;-65
2022/12/31 15:12:50;;;;;;;1.48;0.80;;;;;;;;;;10407613;28;20187;-65
2022/12/31 15:18:03;;;;;;;1.67;1.58;;;;;;;;;;10406551;28;20200;-66
2022/12/31 15:23:11;;;;;;;3.88;2.47;;;;;;;;;;10405403;28;20243;-65
2022/12/31 15:28:28;;;;;;;6.60;4.35;;;;;;;;;;10398336;28;20212;-65
2022/12/31 15:33:31;;;;;;;4.90;3.83;;;;;;;;;;10399175;28;20568;-64
2022/12/31 15:38:33;;;;;;;3.63;1.50;;;;;;;;;;10381649;28;20293;-64
2022/12/31 15:43:46;;;;;;;4.60;2.88;;;;;;;;;;10386752;28;20781;-64
2022/12/31 15:48:51;;;;;;;3.53;1.35;;;;;;;;;;10382391;28;20209;-63
2022/12/31 15:53:52;;;;;;;3.25;1.80;;;;;;;;;;10383794;28;20201;-65
2022/12/31 15:58:54;;;;;;;8.95;3.85;;;;;;;;;;10382219;28;20217;-65
2022/12/31 16:04:16;;;;;;;5.28;2.53;;;;;;;;;;10382339;28;20765;-63
2022/12/31 16:09:18;;;;;;;21.23;11.82;;;;;;;;;;10382328;28;20215;-65
2022/12/31 16:14:23;;;;;;;16.63;9.48;;;;;;;;;;10382998;28;20201;-64
2022/12/31 16:19:43;;;;;;;17.45;7.97;;;;;;;;;;10383705;28;21607;-64
2022/12/31 16:24:43;;;;;;;2.60;2.08;;;;;;;;;;10383270;28;20944;-65
2022/12/31 16:29:45;;;;;;;5.13;3.05;;;;;;;;;;10377248;28;20204;-66
2022/12/31 16:34:45;;;;;;;2.67;1.80;;;;;;;;;;10383308;28;20685;-65
2022/12/31 16:39:55;;;;;;;4.57;3.20;;;;;;;;;;10386951;28;20224;-62
2022/12/31 16:44:56;;;;;;;4.07;2.13;;;;;;;;;;10390838;28;20203;-62
2022/12/31 16:50:02;;;;;;;2.30;1.73;;;;;;;;;;10389060;28;20224;-63
2022/12/31 16:55:07;;;;;;;3.00;1.90;;;;;;;;;;10388817;28;20193;-64
2022/12/31 17:00:14;;;;;;;7.35;2.92;;;;;;;;;;10390698;28;20267;-64
2022/12/31 17:05:21;;;;;;;1.50;1.25;;;;;;;;;;10390102;28;20714;-64
2022/12/31 17:10:31;;;;;;;2.95;2.17;;;;;;;;;;10389430;28;20274;-63
2022/12/31 17:15:39;;;;;;;2.35;2.15;;;;;;;;;;10389188;28;20768;-64
2022/12/31 17:20:40;;;;;;;3.35;1.50;;;;;;;;;;10388376;28;21738;-63
2022/12/31 17:25:40;;;;;;;2.95;2.08;;;;;;;;;;10388954;28;20188;-64
2022/12/31 17:30:40;;;;;;;2.47;2.10;;;;;;;;;;10389189;28;20247;-64
2022/12/31 17:35:42;;;;;;;11.35;6.78;;;;;;;;;;10389071;28;20569;-63
2022/12/31 17:40:43;;;;;;;1.85;1.75;;;;;;;;;;10387771;28;21053;-64
2022/12/31 17:45:44;;;;;;;2.50;0.80;;;;;;;;;;10395383;28;20185;-63
2022/12/31 17:50:48;;;;;;;1.23;0.93;;;;;;;;;;10387558;28;20217;-63
2022/12/31 17:55:50;;;;;;;1.85;1.30;;;;;;;;;;10386473;28;20220;-65
2022/12/31 18:00:51;;;;;;;3.53;2.58;;;;;;;;;;10384336;28;20726;-65
2022/12/31 18:05:51;;;;;;;1.35;1.10;;;;;;;;;;10385728;28;20192;-63
2022/12/31 18:10:52;;;;;;;2.92;1.58;;;;;;;;;;10385214;28;20637;-63
2022/12/31 18:15:53;;;;;;;4.03;2.30;;;;;;;;;;10386187;28;20223;-63
2022/12/31 18:20:57;;;;;;;1.35;1.05;;;;;;;;;;10387378;28;20221;-64
2022/12/31 18:25:57;;;;;;;2.53;1.10;;;;;;;;;;10385386;28;20189;-63
2022/12/31 18:30:58;;;;;;;1.20;1.10;;;;;;;;;;10386948;28;20698;-65
2022/12/31 18:35:58;;;;;;;1.27;1.13;;;;;;;;;;10386627;28;20230;-64
2022/12/31 18:40:58;;;;;;;1.40;1.00;;;;;;;;;;10386447;28;20271;-65
2022/12/31 18:45:58;;;;;;;2.13;1.13;;;;;;;;;;10385374;28;20207;-65
2022/12/31 18:50:59;;;;;;;2.35;0.90;;;;;;;;;;10385122;28;20208;-65
2022/12/31 18:55:59;;;;;;;2.58;1.08;;;;;;;;;;10382023;28;20201;-63
2022/12/31 19:00:59;;;;;;;1.85;1.10;;;;;;;;;;10384027;28;20236;-63
2022/12/31 19:05:59;;;;;;;3.05;1.52;;;;;;;;;;10386541;28;20200;-62
2022/12/31 19:11:00;;;;;;;3.75;2.15;;;;;;;;;;10383819;28;20219;-63
2022/12/31 19:16:00;;;;;;;10.27;1.30;;;;;;;;;;10385224;28;20246;-64
2022/12/31 19:21:00;;;;;;;1.95;1.00;;;;;;;;;;10384013;28;20334;-64
2022/12/31 19:26:00;;;;;;;1.77;0.90;;;;;;;;;;10384266;28;20982;-65
2022/12/31 19:31:01;;;;;;;3.13;1.60;;;;;;;;;;10385563;28;20299;-65
2022/12/31 19:36:01;;;;;;;1.42;1.27;;;;;;;;;;10382922;28;20798;-64
2022/12/31 19:41:01;;;;;;;2.15;1.83;;;;;;;;;;10383401;28;20231;-63
2022/12/31 19:46:02;;;;;;;10.68;4.40;;;;;;;;;;10382112;28;20300;-63
2022/12/31 19:51:06;;;;;;;3.20;1.50;;;;;;;;;;10385224;28;20212;-65
2022/12/31 19:56:11;;;;;;;1.42;1.30;;;;;;;;;;10382288;28;21552;-64
2022/12/31 20:01:16;;;;;;;6.22;2.88;;;;;;;;;;10383918;28;20255;-64
2022/12/31 20:06:17;;;;;;;1.25;1.13;;;;;;;;;;10381931;28;20195;-64
2022/12/31 20:11:19;;;;;;;5.25;2.92;;;;;;;;;;10391937;28;20228;-64
2022/12/31 20:16:20;;;;;;;4.68;2.13;;;;;;;;;;10392671;28;20273;-64
2022/12/31 20:21:22;;;;;;;13.98;7.05;;;;;;;;;;10389329;28;20221;-63
2022/12/31 20:26:23;;;;;;;1.40;1.30;;;;;;;;;;10372648;28;20228;-65
2022/12/31 20:31:24;;;;;;;1.65;1.55;;;;;;;;;;10390592;28;20635;-64
2022/12/31 20:36:25;;;;;;;1.52;1.20;;;;;;;;;;10390506;28;20192;-63
2022/12/31 20:41:26;;;;;;;3.75;1.40;;;;;;;;;;10391135;28;20282;-64
2022/12/31 20:46:27;;;;;;;2.42;1.40;;;;;;;;;;10389315;28;20197;-64
2022/12/31 20:51:29;;;;;;;2.22;1.27;;;;;;;;;;10390124;28;20220;-63
2022/12/31 20:56:31;;;;;;;4.63;2.90;;;;;;;;;;10388578;28;22323;-65
2022/12/31 21:01:31;;;;;;;3.47;1.60;;;;;;;;;;10387965;28;20240;-66
2022/12/31 21:06:32;;;;;;;2.83;1.90;;;;;;;;;;10386299;28;20189;-64
2022/12/31 21:16:51;;;;;;;3.72;1.85;;;;;;;;;;10386183;28;20255;-64
2022/12/31 21:21:51;;;;;;;8.23;5.57;;;;;;;;;;10385612;28;20383;-62
2022/12/31 21:26:55;;;;;;;6.78;4.35;;;;;;;;;;10387572;28;20777;-65
2022/12/31 21:31:55;;;;;;;15.13;8.98;;;;;;;;;;10385225;28;20236;-64
2022/12/31 21:36:55;;;;;;;6.18;2.05;;;;;;;;;;10385377;28;20290;-64
2022/12/31 21:41:55;;;;;;;4.70;2.20;;;;;;;;;;10383704;28;20307;-65
2022/12/31 21:48:18;;;;;;;12.55;7.03;;;;;;;;;;10380150;28;20279;-64
2022/12/31 21:52:26;;;;;;;2.63;2.08;;;;;;;;;;10384989;28;20219;-63
2022/12/31 21:57:26;;;;;;;2.42;1.83;;;;;;;;;;10383030;28;20230;-64
2022/12/31 22:07:46;;;;;;;3.63;1.50;;;;;;;;;;10380975;28;20967;-64
2022/12/31 22:12:46;;;;;;;2.85;2.40;;;;;;;;;;10381146;28;21242;-63
2022/12/31 22:17:46;;;;;;;3.70;1.48;;;;;;;;;;10376621;28;20479;-64
2022/12/31 22:22:47;;;;;;;5.82;1.88;;;;;;;;;;10378703;28;20233;-64
2022/12/31 22:27:50;;;;;;;2.30;1.08;;;;;;;;;;10371167;28;20208;-63
2022/12/31 22:32:50;;;;;;;1.02;0.80;;;;;;;;;;10370930;28;20235;-64
2022/12/31 22:37:50;;;;;;;7.13;4.38;;;;;;;;;;10376146;28;20223;-64
2022/12/31 22:42:50;;;;;;;2.10;1.10;;;;;;;;;;10375811;28;20243;-65
2022/12/31 22:47:51;;;;;;;1.13;0.90;;;;;;;;;;10376013;28;20674;-64
2022/12/31 22:52:51;;;;;;;2.80;1.00;;;;;;;;;;10377917;28;20258;-64
2022/12/31 22:57:52;;;;;;;1.70;1.23;;;;;;;;;;10372333;28;20220;-65
2022/12/31 23:02:52;;;;;;;2.75;1.52;;;;;;;;;;10377463;28;20378;-63
2022/12/31 23:07:52;;;;;;;3.65;2.45;;;;;;;;;;10375966;28;20219;-65
2022/12/31 23:12:52;;;;;;;6.72;2.70;;;;;;;;;;10378601;28;20269;-63
2022/12/31 23:23:13;;;;;;;7.75;4.90;;;;;;;;;;10375727;28;20339;-65
2022/12/31 23:28:14;;;;;;;4.13;2.80;;;;;;;;;;10375254;28;20745;-63
2022/12/31 23:33:16;;;;;;;4.25;2.03;;;;;;;;;;10373547;28;20634;-64
2022/12/31 23:38:16;;;;;;;3.60;2.42;;;;;;;;;;10376653;28;20208;-64
2022/12/31 23:43:18;;;;;;;9.35;6.50;;;;;;;;;;10377804;28;20215;-65
2022/12/31 23:48:18;;;;;;;2.47;1.95;;;;;;;;;;10385849;28;20212;-64
2022/12/31 23:53:19;;;;;;;5.45;3.67;;;;;;;;;;10385892;28;20203;-63
2022/12/31 23:58:19;;;;;;;3.33;2.70;;;;;;;;;;10385365;28;20479;-63
